Long Beach, MS (39560)

12:12 PM CDT on May 26, 2015 (GMT -0500)
Eddie's Weather Station | | Change Station
CLOSE
Current Station
Personal Weather Station
Location: Long Beach, MS
Elevation: 28 ft
Nearby Weather Stations
Active Advisory: Flood Warning

Elev 28 ft 30.36 °N, 89.16 °W | Updated 11 seconds ago

Overcast
Overcast
76.1 °F
Feels Like 77 °F
N
5.4
Wind Variable Wind from ENE
Gusts 5.8 mph

Today
High -- | Low -- °F
--% Chance of Precip.
Yesterday
High -- | Low -- °F
Precip. -- in
5:57 AM 7:50 PM
First Quarter, 59% visible
Pressure 30.10 in
Visibility 10.0 miles
Clouds Few 11000 ft
Heat Index 77 °F
Dew Point 69 °F
Humidity 79%
Rainfall 0.04 in
Snow Depth Not available.
UV 12 out of 12
Pollen 3.30 out of 12
Air Quality Not available.
Flu Activity No Activity
METAR KGPT 261653Z 08005KT 10SM FEW110 22/19 A3010 RMK AO2 RAE35 SLP193 P0000 T02220189

More Conditions Fewer Conditions

Pressure 30.10 in
Visibility 10.0 miles
Clouds Few 11000 ft
Heat Index 77 °F
Dew Point 69 °F
Humidity 79%
Rainfall 0.04 in
Snow Depth Not available.
UV 12 out of 12
Pollen 3.30 out of 12
Air Quality Not available.
Flu Activity No Activity
METAR KGPT 261653Z 08005KT 10SM FEW110 22/19 A3010 RMK AO2 RAE35 SLP193 P0000 T02220189

More Conditions Fewer Conditions

10-Day Weather Forecast

Almanac

Astronomy

May. 26, 2015 Rise Set
Actual Time
Civil Twilight
Nautical Twilight
Astronomical Twilight
Moon
Length of Visible Light
Length of Day
Tomorrow will be .
, % of the Moon is Illuminated

Today's Extremes

State Highs State Lows

Community

WunderPhotos

Upload Photos

1,824,373 photos uploaded!

WunderBlogs® & News

Nearby

Air Quality

  Air Quality AQ Index Pollutant
Not available.

Snow Depth

Station Depth Elevation

Earthquake Activity

City Distance Mag. Time & Date
Minimum magnitude displayed is 2.5.

Coastal Water Temperatures

Place Temperature

Stations

Nearby Weather Stations

Station Location Temp. Windchill Dew Point Humidity Wind Precip. Elev Updated Type
                   
Flood Warning
Statement as of 10:54 AM CDT on May 26, 2015

... Flood Warning extended until Wednesday evening... the Flood Warning
continues for
the Biloxi river near Lyman.
* Until Wednesday evening.
* At 8:00 am Tuesday the stage was 13.2 feet.
* Minor flooding is occurring and minor flooding is forecast.
* Flood stage is 12.0 feet.
* Forecast... the river is cresting and will fall to below flood
stage by tomorrow early afternoon.
* Impact... at 13.0 feet... Loraine Road will begin to flood at 13 feet
making driving hazardous. River Road near Three Rivers Road bridge
will begin to flood.
* Impact... at 12.0 feet... River Road near Three Rivers Road bridge
will begin to flood.
* Impact... at 9.0 feet... the river will be bankfull at the Three
Rivers Road bridge.



Lat... Lon 3055 8912 3055 8917 3048 8914 3048 8909